Time,TemperatureF,DewpointF,PressureIn,WindDirection,WindDirectionDegrees,WindSpeedMPH,WindSpeedGustMPH,Humidity,HourlyPrecipIn,Conditions,Clouds,dailyrainin,SoftwareType,DateUTC
2013-03-09 00:03:00,50.0,47.0,30.20,North,7,3.0,4.0,90,99.99,,,-99.99,,2013-03-09 05:03:00,
2013-03-09 00:12:00,50.0,47.0,30.20,North,7,3.0,4.0,90,99.99,,,-99.99,,2013-03-09 05:12:00,
2013-03-09 00:22:00,49.0,46.0,30.20,North,6,2.0,3.0,89,99.99,,,-99.99,,2013-03-09 05:22:00,
2013-03-09 00:32:00,48.0,45.0,30.20,North,3,2.0,4.0,89,99.99,,,-99.99,,2013-03-09 05:32:00,
2013-03-09 00:42:00,48.0,45.0,30.20,North,3,2.0,4.0,89,99.99,,,-99.99,,2013-03-09 05:42:00,
2013-03-09 00:53:00,48.0,45.0,30.20,NNE,21,2.0,2.0,89,99.99,,,-99.99,,2013-03-09 05:53:00,
2013-03-09 01:02:00,47.0,45.0,30.20,NNE,17,3.0,4.0,91,99.99,,,-99.99,,2013-03-09 06:02:00,
2013-03-09 01:11:00,47.0,45.0,30.19,NE,51,2.0,4.0,92,99.99,,,-99.99,,2013-03-09 06:11:00,
2013-03-09 01:22:00,47.0,45.0,30.19,NE,51,2.0,4.0,92,99.99,,,-99.99,,2013-03-09 06:22:00,
2013-03-09 01:32:00,47.0,45.0,30.18,ENE,60,4.0,6.0,94,99.99,,,-99.99,,2013-03-09 06:32:00,
2013-03-09 01:42:00,47.0,45.0,30.18,ENE,60,4.0,6.0,94,99.99,,,-99.99,,2013-03-09 06:42:00,
2013-03-09 01:52:00,48.0,47.0,30.17,ENE,65,3.0,5.0,95,99.99,,,-99.99,,2013-03-09 06:52:00,
2013-03-09 02:01:00,48.0,47.0,30.17,ENE,63,2.0,3.0,96,99.99,,,-99.99,,2013-03-09 07:01:00,
2013-03-09 02:11:00,48.0,47.0,30.17,ENE,63,2.0,3.0,96,99.99,,,-99.99,,2013-03-09 07:11:00,
2013-03-09 02:21:00,48.0,47.0,30.16,North,6,2.0,3.0,96,99.99,,,-99.99,,2013-03-09 07:21:00,
2013-03-09 02:32:00,48.0,47.0,30.16,North,7,3.0,4.0,96,99.99,,,-99.99,,2013-03-09 07:32:00,
2013-03-09 02:42:00,48.0,47.0,30.16,North,7,3.0,4.0,96,99.99,,,-99.99,,2013-03-09 07:42:00,
2013-03-09 02:52:00,47.0,46.0,30.17,NNE,13,4.0,5.0,96,99.99,,,-99.99,,2013-03-09 07:52:00,
2013-03-09 03:01:00,47.0,46.0,30.17,North,10,3.0,5.0,97,99.99,,,-99.99,,2013-03-09 08:01:00,
2013-03-09 03:11:00,47.0,46.0,30.17,North,10,3.0,5.0,97,99.99,,,-99.99,,2013-03-09 08:11:00,
2013-03-09 03:22:00,47.0,46.0,30.16,NE,35,2.0,3.0,97,99.99,,,-99.99,,2013-03-09 08:22:00,
2013-03-09 03:32:00,47.0,46.0,30.15,NNE,21,2.0,4.0,97,99.99,,,-99.99,,2013-03-09 08:32:00,
2013-03-09 03:42:00,47.0,46.0,30.15,NNE,21,2.0,4.0,97,99.99,,,-99.99,,2013-03-09 08:42:00,
2013-03-09 03:52:00,47.0,46.0,30.15,NNE,21,3.0,4.0,97,99.99,,,-99.99,,2013-03-09 08:52:00,
2013-03-09 04:02:00,46.0,45.0,30.15,North,10,3.0,4.0,96,99.99,,,-99.99,,2013-03-09 09:02:00,
2013-03-09 04:12:00,46.0,45.0,30.15,North,10,3.0,4.0,96,99.99,,,-99.99,,2013-03-09 09:12:00,
2013-03-09 04:21:00,46.0,45.0,30.15,North,3,4.0,5.0,97,99.99,,,-99.99,,2013-03-09 09:21:00,
2013-03-09 04:32:00,46.0,45.0,30.15,North,4,3.0,4.0,97,99.99,,,-99.99,,2013-03-09 09:32:00,
2013-03-09 04:42:00,46.0,45.0,30.15,North,4,3.0,4.0,97,99.99,,,-99.99,,2013-03-09 09:42:00,
2013-03-09 04:52:00,46.0,45.0,30.15,North,3,4.0,5.0,98,99.99,,,-99.99,,2013-03-09 09:52:00,
2013-03-09 05:01:00,47.0,46.0,30.16,North,6,4.0,4.0,98,99.99,,,-99.99,,2013-03-09 10:01:00,
2013-03-09 05:11:00,47.0,46.0,30.16,North,6,4.0,4.0,98,99.99,,,-99.99,,2013-03-09 10:11:00,
2013-03-09 05:21:00,47.0,46.0,30.16,NNW,347,4.0,5.0,98,99.99,,,-99.99,,2013-03-09 10:21:00,
2013-03-09 05:32:00,46.0,45.0,30.16,North,0,0.0,0.0,98,99.99,,,-99.99,,2013-03-09 10:32:00,
2013-03-09 05:42:00,46.0,45.0,30.16,North,0,0.0,0.0,98,99.99,,,-99.99,,2013-03-09 10:42:00,
2013-03-09 05:52:00,46.0,45.0,30.16,NNE,25,0.0,3.0,98,99.99,,,-99.99,,2013-03-09 10:52:00,
2013-03-09 06:01:00,45.0,44.0,30.17,North,359,4.0,5.0,98,99.99,,,-99.99,,2013-03-09 11:01:00,
2013-03-09 06:11:00,45.0,44.0,30.17,North,359,4.0,5.0,98,99.99,,,-99.99,,2013-03-09 11:11:00,
2013-03-09 06:21:00,45.0,44.0,30.17,North,8,3.0,5.0,98,99.99,,,-99.99,,2013-03-09 11:21:00,
2013-03-09 06:32:00,44.0,43.0,30.18,North,3,2.0,3.0,98,99.99,,,-99.99,,2013-03-09 11:32:00,
2013-03-09 06:42:00,44.0,43.0,30.18,North,3,2.0,3.0,98,99.99,,,-99.99,,2013-03-09 11:42:00,
2013-03-09 06:52:00,44.0,43.0,30.18,NW,326,1.0,3.0,98,99.99,,,-99.99,,2013-03-09 11:52:00,
2013-03-09 07:02:00,44.0,43.0,30.19,North,0,0.0,0.0,98,99.99,,,-99.99,,2013-03-09 12:02:00,
2013-03-09 07:11:00,44.0,43.0,30.19,North,0,0.0,0.0,98,99.99,,,-99.99,,2013-03-09 12:11:00,
2013-03-09 07:21:00,44.0,43.0,30.19,North,0,0.0,0.0,98,99.99,,,-99.99,,2013-03-09 12:21:00,
2013-03-09 07:32:00,44.0,44.0,30.19,North,0,0.0,0.0,99,99.99,,,-99.99,,2013-03-09 12:32:00,
2013-03-09 07:42:00,44.0,44.0,30.19,North,0,0.0,0.0,99,99.99,,,-99.99,,2013-03-09 12:42:00,
2013-03-09 07:52:00,45.0,45.0,30.20,North,0,0.0,0.0,100,99.99,,,-99.99,,2013-03-09 12:52:00,
2013-03-09 08:02:00,46.0,46.0,30.20,North,0,0.0,0.0,100,99.99,,,-99.99,,2013-03-09 13:02:00,
2013-03-09 08:11:00,46.0,46.0,30.20,North,0,0.0,0.0,100,99.99,,,-99.99,,2013-03-09 13:11:00,
2013-03-09 08:21:00,51.0,51.0,30.21,North,10,3.0,5.0,100,99.99,,,-99.99,,2013-03-09 13:21:00,
2013-03-09 08:32:00,54.0,54.0,30.21,NNE,21,4.0,7.0,100,99.99,,,-99.99,,2013-03-09 13:32:00,
2013-03-09 08:42:00,54.0,54.0,30.21,NNE,21,4.0,7.0,100,99.99,,,-99.99,,2013-03-09 13:42:00,
2013-03-09 08:52:00,57.0,52.0,30.21,NE,56,4.0,6.0,84,99.99,,,-99.99,,2013-03-09 13:52:00,
2013-03-09 09:01:00,60.0,52.0,30.21,ENE,65,5.0,8.0,76,99.99,,,-99.99,,2013-03-09 14:01:00,
2013-03-09 09:11:00,60.0,52.0,30.21,ENE,65,5.0,8.0,76,99.99,,,-99.99,,2013-03-09 14:11:00,
2013-03-09 09:21:00,61.0,52.0,30.22,NNE,32,4.0,7.0,73,99.99,,,-99.99,,2013-03-09 14:21:00,
2013-03-09 09:32:00,64.0,52.0,30.21,ENE,63,3.0,7.0,65,99.99,,,-99.99,,2013-03-09 14:32:00,
2013-03-09 09:42:00,64.0,52.0,30.21,ENE,63,3.0,7.0,65,99.99,,,-99.99,,2013-03-09 14:42:00,
2013-03-09 09:52:00,66.0,53.0,30.21,ENE,63,2.0,6.0,62,99.99,,,-99.99,,2013-03-09 14:52:00,
2013-03-09 10:02:00,67.0,53.0,30.22,North,7,3.0,8.0,60,99.99,,,-99.99,,2013-03-09 15:02:00,
2013-03-09 10:12:00,67.0,53.0,30.22,North,7,3.0,8.0,60,99.99,,,-99.99,,2013-03-09 15:12:00,
2013-03-09 10:22:00,68.0,52.0,30.22,ESE,114,3.0,8.0,57,99.99,,,-99.99,,2013-03-09 15:22:00,
2013-03-09 10:32:00,69.0,53.0,30.22,ESE,110,3.0,9.0,56,99.99,,,-99.99,,2013-03-09 15:32:00,
2013-03-09 10:42:00,69.0,53.0,30.22,ESE,110,3.0,9.0,56,99.99,,,-99.99,,2013-03-09 15:42:00,
2013-03-09 10:52:00,70.0,53.0,30.22,ESE,117,4.0,9.0,54,99.99,,,-99.99,,2013-03-09 15:52:00,
2013-03-09 11:01:00,70.0,51.0,30.22,NE,53,6.0,11.0,51,99.99,,,-99.99,,2013-03-09 16:01:00,
2013-03-09 11:11:00,70.0,51.0,30.22,NE,53,6.0,11.0,51,99.99,,,-99.99,,2013-03-09 16:11:00,
2013-03-09 11:21:00,71.0,50.0,30.22,East,96,5.0,11.0,48,99.99,,,-99.99,,2013-03-09 16:21:00,
2013-03-09 11:32:00,72.0,49.0,30.23,ESE,108,4.0,8.0,45,99.99,,,-99.99,,2013-03-09 16:32:00,
2013-03-09 11:42:00,72.0,49.0,30.23,ESE,108,4.0,8.0,45,99.99,,,-99.99,,2013-03-09 16:42:00,
2013-03-09 11:52:00,73.0,50.0,30.22,ESE,104,4.0,8.0,45,99.99,,,-99.99,,2013-03-09 16:52:00,
2013-03-09 12:01:00,73.0,49.0,30.21,SE,132,4.0,11.0,43,99.99,,,-99.99,,2013-03-09 17:01:00,
2013-03-09 12:11:00,73.0,49.0,30.21,SE,132,4.0,11.0,43,99.99,,,-99.99,,2013-03-09 17:11:00,
2013-03-09 12:22:00,74.0,49.0,30.21,ESE,105,3.0,8.0,42,99.99,,,-99.99,,2013-03-09 17:22:00,
2013-03-09 12:32:00,73.0,49.0,30.20,NE,51,4.0,12.0,42,99.99,,,-99.99,,2013-03-09 17:32:00,
2013-03-09 12:42:00,73.0,49.0,30.20,NE,51,4.0,12.0,42,99.99,,,-99.99,,2013-03-09 17:42:00,
2013-03-09 12:52:00,75.0,50.0,30.20,East,97,5.0,10.0,41,99.99,,,-99.99,,2013-03-09 17:52:00,
2013-03-09 13:02:00,75.0,49.0,30.19,East,90,5.0,12.0,40,99.99,,,-99.99,,2013-03-09 18:02:00,
2013-03-09 13:11:00,75.0,49.0,30.19,East,90,5.0,12.0,40,99.99,,,-99.99,,2013-03-09 18:11:00,
2013-03-09 13:21:00,75.0,48.0,30.18,NE,39,5.0,9.0,39,99.99,,,-99.99,,2013-03-09 18:21:00,
2013-03-09 13:32:00,75.0,50.0,30.17,North,8,3.0,9.0,41,99.99,,,-99.99,,2013-03-09 18:32:00,
2013-03-09 13:42:00,75.0,50.0,30.17,North,8,3.0,9.0,41,99.99,,,-99.99,,2013-03-09 18:42:00,
2013-03-09 13:52:00,75.0,49.0,30.17,NE,53,6.0,11.0,40,99.99,,,-99.99,,2013-03-09 18:52:00,
2013-03-09 14:02:00,76.0,49.0,30.16,ENE,58,3.0,8.0,38,99.99,,,-99.99,,2013-03-09 19:02:00,
2013-03-09 14:12:00,76.0,49.0,30.16,ENE,58,3.0,8.0,38,99.99,,,-99.99,,2013-03-09 19:12:00,
2013-03-09 14:22:00,76.0,49.0,30.15,ENE,69,4.0,9.0,38,99.99,,,-99.99,,2013-03-09 19:22:00,
2013-03-09 14:32:00,76.0,50.0,30.14,NE,52,5.0,11.0,40,99.99,,,-99.99,,2013-03-09 19:32:00,
2013-03-09 14:42:00,76.0,50.0,30.14,NE,52,5.0,11.0,40,99.99,,,-99.99,,2013-03-09 19:42:00,
2013-03-09 14:52:00,76.0,49.0,30.14,ESE,105,5.0,11.0,39,99.99,,,-99.99,,2013-03-09 19:52:00,
2013-03-09 15:01:00,76.0,49.0,30.14,East,93,4.0,10.0,39,99.99,,,-99.99,,2013-03-09 20:01:00,
2013-03-09 15:11:00,76.0,49.0,30.14,East,93,4.0,10.0,39,99.99,,,-99.99,,2013-03-09 20:11:00,
2013-03-09 15:22:00,75.0,49.0,30.13,ESE,111,3.0,7.0,40,99.99,,,-99.99,,2013-03-09 20:22:00,
2013-03-09 15:32:00,75.0,50.0,30.13,East,96,4.0,10.0,42,99.99,,,-99.99,,2013-03-09 20:32:00,
2013-03-09 15:42:00,75.0,50.0,30.13,East,96,4.0,10.0,42,99.99,,,-99.99,,2013-03-09 20:42:00,
2013-03-09 15:52:00,75.0,50.0,30.14,ESE,103,4.0,12.0,41,99.99,,,-99.99,,2013-03-09 20:52:00,
2013-03-09 16:02:00,74.0,50.0,30.14,ESE,108,5.0,12.0,43,99.99,,,-99.99,,2013-03-09 21:02:00,
2013-03-09 16:12:00,74.0,50.0,30.14,ESE,108,5.0,12.0,43,99.99,,,-99.99,,2013-03-09 21:12:00,
2013-03-09 16:22:00,74.0,50.0,30.14,ESE,105,6.0,13.0,43,99.99,,,-99.99,,2013-03-09 21:22:00,
2013-03-09 16:32:00,74.0,51.0,30.14,East,100,5.0,12.0,44,99.99,,,-99.99,,2013-03-09 21:32:00,
2013-03-09 16:42:00,74.0,51.0,30.14,East,100,5.0,12.0,44,99.99,,,-99.99,,2013-03-09 21:42:00,
2013-03-09 16:52:00,72.0,50.0,30.15,East,98,5.0,11.0,46,99.99,,,-99.99,,2013-03-09 21:52:00,
2013-03-09 17:01:00,71.0,50.0,30.15,ESE,110,5.0,11.0,47,99.99,,,-99.99,,2013-03-09 22:01:00,
2013-03-09 17:11:00,71.0,50.0,30.15,ESE,110,5.0,11.0,47,99.99,,,-99.99,,2013-03-09 22:11:00,
2013-03-09 17:21:00,71.0,51.0,30.16,SE,128,5.0,12.0,49,99.99,,,-99.99,,2013-03-09 22:21:00,
2013-03-09 17:32:00,70.0,50.0,30.16,ESE,107,4.0,9.0,49,99.99,,,-99.99,,2013-03-09 22:32:00,
2013-03-09 17:42:00,70.0,50.0,30.16,ESE,107,4.0,9.0,49,99.99,,,-99.99,,2013-03-09 22:42:00,
2013-03-09 17:52:00,70.0,50.0,30.16,ESE,113,3.0,7.0,50,99.99,,,-99.99,,2013-03-09 22:52:00,
2013-03-09 18:01:00,69.0,50.0,30.16,ESE,103,5.0,16.0,51,99.99,,,-99.99,,2013-03-09 23:01:00,
2013-03-09 18:11:00,69.0,50.0,30.16,ESE,103,5.0,16.0,51,99.99,,,-99.99,,2013-03-09 23:11:00,
2013-03-09 18:22:00,68.0,50.0,30.17,ESE,103,6.0,11.0,53,99.99,,,-99.99,,2013-03-09 23:22:00,
2013-03-09 18:32:00,67.0,50.0,30.17,ESE,103,5.0,13.0,55,99.99,,,-99.99,,2013-03-09 23:32:00,
2013-03-09 18:42:00,67.0,50.0,30.17,ESE,103,5.0,13.0,55,99.99,,,-99.99,,2013-03-09 23:42:00,
2013-03-09 18:52:00,66.0,50.0,30.17,East,97,4.0,10.0,57,99.99,,,-99.99,,2013-03-09 23:52:00,
2013-03-09 19:01:00,66.0,52.0,30.17,ESE,115,5.0,9.0,60,99.99,,,-99.99,,2013-03-10 00:01:00,
2013-03-09 19:11:00,66.0,52.0,30.17,ESE,115,5.0,9.0,60,99.99,,,-99.99,,2013-03-10 00:11:00,
2013-03-09 19:22:00,65.0,51.0,30.18,ESE,111,3.0,7.0,61,99.99,,,-99.99,,2013-03-10 00:22:00,
2013-03-09 19:32:00,64.0,52.0,30.19,ESE,104,2.0,6.0,65,99.99,,,-99.99,,2013-03-10 00:32:00,
2013-03-09 19:42:00,64.0,52.0,30.19,ESE,104,2.0,6.0,65,99.99,,,-99.99,,2013-03-10 00:42:00,
2013-03-09 19:52:00,63.0,51.0,30.19,NNE,17,2.0,4.0,66,99.99,,,-99.99,,2013-03-10 00:52:00,
2013-03-09 20:01:00,63.0,52.0,30.20,ESE,110,1.0,4.0,67,99.99,,,-99.99,,2013-03-10 01:01:00,
2013-03-09 20:11:00,63.0,52.0,30.20,ESE,110,1.0,4.0,67,99.99,,,-99.99,,2013-03-10 01:11:00,
2013-03-09 20:21:00,62.0,52.0,30.19,ESE,117,1.0,4.0,69,99.99,,,-99.99,,2013-03-10 01:21:00,
2013-03-09 20:32:00,62.0,52.0,30.20,NE,56,0.0,3.0,70,99.99,,,-99.99,,2013-03-10 01:32:00,
2013-03-09 20:42:00,62.0,52.0,30.20,NE,56,0.0,3.0,70,99.99,,,-99.99,,2013-03-10 01:42:00,
2013-03-09 20:52:00,61.0,52.0,30.20,East,100,1.0,5.0,71,99.99,,,-99.99,,2013-03-10 01:52:00,
2013-03-09 21:01:00,60.0,51.0,30.21,ESE,103,2.0,4.0,72,99.99,,,-99.99,,2013-03-10 02:01:00,
2013-03-09 21:11:00,60.0,51.0,30.21,ESE,103,2.0,4.0,72,99.99,,,-99.99,,2013-03-10 02:11:00,
2013-03-09 21:22:00,60.0,51.0,30.20,East,101,3.0,4.0,73,99.99,,,-99.99,,2013-03-10 02:22:00,
2013-03-09 21:32:00,59.0,51.0,30.21,ESE,104,2.0,3.0,75,99.99,,,-99.99,,2013-03-10 02:32:00,
2013-03-09 21:42:00,59.0,51.0,30.21,ESE,104,2.0,3.0,75,99.99,,,-99.99,,2013-03-10 02:42:00,
2013-03-09 21:52:00,58.0,50.0,30.20,ESE,104,3.0,4.0,76,99.99,,,-99.99,,2013-03-10 02:52:00,
2013-03-09 22:02:00,57.0,50.0,30.19,East,98,3.0,5.0,77,99.99,,,-99.99,,2013-03-10 03:02:00,
2013-03-09 22:11:00,57.0,50.0,30.19,ESE,107,1.0,4.0,78,99.99,,,-99.99,,2013-03-10 03:11:00,
2013-03-09 22:22:00,57.0,50.0,30.19,ESE,107,1.0,4.0,78,99.99,,,-99.99,,2013-03-10 03:22:00,
2013-03-09 22:32:00,57.0,51.0,30.20,East,82,0.0,1.0,79,99.99,,,-99.99,,2013-03-10 03:32:00,
2013-03-09 22:42:00,57.0,51.0,30.20,East,82,0.0,1.0,79,99.99,,,-99.99,,2013-03-10 03:42:00,
2013-03-09 22:52:00,56.0,50.0,30.21,ENE,58,0.0,1.0,79,99.99,,,-99.99,,2013-03-10 03:52:00,
2013-03-09 23:01:00,56.0,51.0,30.20,ENE,58,2.0,5.0,82,99.99,,,-99.99,,2013-03-10 04:01:00,
2013-03-09 23:11:00,56.0,51.0,30.20,ENE,58,2.0,5.0,82,99.99,,,-99.99,,2013-03-10 04:11:00,
2013-03-09 23:21:00,56.0,50.0,30.21,North,0,0.0,0.0,81,99.99,,,-99.99,,2013-03-10 04:21:00,
2013-03-09 23:32:00,55.0,49.0,30.20,ENE,66,0.0,1.0,81,99.99,,,-99.99,,2013-03-10 04:32:00,
2013-03-09 23:42:00,55.0,49.0,30.20,ENE,66,0.0,1.0,81,99.99,,,-99.99,,2013-03-10 04:42:00,
2013-03-09 23:52:00,55.0,50.0,30.19,East,79,0.0,1.0,83,99.99,,,-99.99,,2013-03-10 04:52:00,